グアテマラシティ の空港の天気 - METARとTAF

ラ・アウロラ国際空港 ( MGGT / GUA ) - グアテマラ グアテマラシティ
飛行場実況気象(Metar)
観測時間07/12 16:00 CST (07/12 22:00 UTC)
風向・風速北北東 8m/s
視程10km以上
天気現象砂嵐
少しの雲 雲底高度 610m
少しの雲 雲底高度 730m
少しの雲 雲底高度 6100m
気温26℃
湿度37%
気圧1024hPa
METARMGGT 122200Z 02016KT 9999 FEW020 FEW024CB 26/10 Q1024 A3024 FEW200 CB SSE/SW
過去の天気等 Google飛行場航空写真 Wunderground天気予報

過去48時間のMETAR

飛行場予報(TAF)
発表時間: 7/12 11:00 CST (7/12 17:00 UTC)
予報対象時間: 12日12時 CST ~ 13日12時 CST
風向・風速北 7m/s
視程10km以上
少しの雲 雲底高度 550m
12日14時 CST ~ 12日18時 CST に一時的に
風向・風速北東 5m/s
全天の4割程度の塔状積雲 雲底高度 610m
12日18時 CST ~ 12日20時 CST に徐々に
風向・風速北 5m/s
全天の4割程度の雲 雲底高度 490m
13日0時 CST ~ 13日10時 CST に一時的に
少しの雲 雲底高度 430m
13日10時 CST ~ 13日12時 CST に徐々に
風向・風速北北東 6m/s
全天の4割程度の雲 雲底高度 550m
MGGT 121700Z 1218/1318 36014KT 9999 FEW018 TX26/1220Z TN17/1312Z
TEMPO 1220/1300 04010KT SCT020TCU
BECMG 1300/1302 36010KT SCT016
TEMPO 1306/1316 FEW014
BECMG 1316/1318 02012KT SCT018